Time;durP1;ratioP1;P1;durP2;ratioP2;P2;SDS_P1;SDS_P2;PMS_P1;PMS_P2;Temp;Humidity;BMP_temperature;BMP_pressure;BME280_temperature;BME280_humidity;BME280_pressure;Samples;Min_cycle;Max_cycle;Signal;HPM_P1;HPM_P2
2023/02/14 00:01:25;;;;;;;43.95;35.08;;;;;;;;;;10029754;28;20061;-61
2023/02/14 00:06:18;;;;;;;43.20;33.90;;;;;;;;;;10030068;28;20042;-61
2023/02/14 00:11:13;;;;;;;40.40;30.25;;;;;;;;;;10030174;28;20048;-61
2023/02/14 00:16:06;;;;;;;40.03;31.00;;;;;;;;;;10029959;28;20049;-61
2023/02/14 00:21:00;;;;;;;45.30;33.13;;;;;;;;;;10029944;28;20054;-61
2023/02/14 00:25:54;;;;;;;40.75;31.23;;;;;;;;;;10028763;28;20129;-61
2023/02/14 00:30:47;;;;;;;43.40;31.05;;;;;;;;;;10028556;28;20068;-61
2023/02/14 00:35:40;;;;;;;44.65;32.97;;;;;;;;;;10028227;28;20474;-61
2023/02/14 00:40:33;;;;;;;45.15;34.50;;;;;;;;;;10028490;28;20053;-61
2023/02/14 00:45:27;;;;;;;44.03;31.38;;;;;;;;;;10024894;28;20085;-61
2023/02/14 00:50:23;;;;;;;40.42;32.00;;;;;;;;;;10024509;28;20061;-61
2023/02/14 00:55:17;;;;;;;41.75;30.25;;;;;;;;;;10025782;28;20042;-61
2023/02/14 01:00:12;;;;;;;37.92;28.88;;;;;;;;;;10024761;28;20060;-61
2023/02/14 01:05:07;;;;;;;42.03;29.50;;;;;;;;;;10025336;28;20089;-61
2023/02/14 01:10:01;;;;;;;42.20;29.45;;;;;;;;;;10025687;28;20505;-61
2023/02/14 01:14:55;;;;;;;43.70;31.05;;;;;;;;;;10024428;28;20068;-61
2023/02/14 01:19:47;;;;;;;41.08;30.25;;;;;;;;;;10023652;28;20046;-61
2023/02/14 01:24:41;;;;;;;46.75;35.08;;;;;;;;;;10022357;28;20042;-61
2023/02/14 01:29:34;;;;;;;41.38;31.33;;;;;;;;;;10023735;28;20056;-61
2023/02/14 01:34:27;;;;;;;40.75;32.45;;;;;;;;;;10024820;28;20049;-60
2023/02/14 01:39:21;;;;;;;39.47;29.88;;;;;;;;;;10024682;28;20049;-61
2023/02/14 01:44:14;;;;;;;39.42;31.45;;;;;;;;;;10024395;28;20544;-61
2023/02/14 01:49:20;;;;;;;38.17;31.15;;;;;;;;;;9925000;28;2855508;-61
2023/02/14 01:54:14;;;;;;;38.75;30.10;;;;;;;;;;10024951;28;20104;-61
2023/02/14 01:59:10;;;;;;;41.42;31.30;;;;;;;;;;10007454;28;20498;-61
2023/02/14 02:04:09;;;;;;;37.05;29.90;;;;;;;;;;10007932;28;20049;-61
2023/02/14 02:09:25;;;;;;;34.33;27.30;;;;;;;;;;10023875;28;20133;-61
2023/02/14 02:14:20;;;;;;;38.22;28.73;;;;;;;;;;10024617;28;20060;-61
2023/02/14 02:19:34;;;;;;;41.03;28.95;;;;;;;;;;10023361;28;20096;-61
2023/02/14 02:24:33;;;;;;;34.90;28.95;;;;;;;;;;10024364;28;20467;-61
2023/02/14 02:29:48;;;;;;;33.60;26.07;;;;;;;;;;10022669;28;20415;-61
2023/02/14 02:35:14;;;;;;;34.33;25.80;;;;;;;;;;10022201;28;20053;-61
2023/02/14 02:40:27;;;;;;;33.50;25.55;;;;;;;;;;10024707;28;20045;-61
2023/02/14 03:01:37;;;;;;;35.72;27.17;;;;;;;;;;10011469;28;20558;-61
2023/02/14 03:06:31;;;;;;;33.33;26.95;;;;;;;;;;10003321;28;20038;-60
2023/02/14 03:11:25;;;;;;;33.35;26.67;;;;;;;;;;10023319;28;20080;-60
2023/02/14 03:16:31;;;;;;;33.90;27.13;;;;;;;;;;10024244;28;20050;-61
2023/02/14 03:21:45;;;;;;;38.95;27.55;;;;;;;;;;10021736;28;20061;-61
2023/02/14 03:27:00;;;;;;;34.53;26.48;;;;;;;;;;10021720;28;20046;-61
2023/02/14 03:32:21;;;;;;;36.72;27.67;;;;;;;;;;10023265;28;20081;-61
2023/02/14 03:37:25;;;;;;;39.13;29.30;;;;;;;;;;10013550;28;20065;-61
2023/02/14 03:42:22;;;;;;;37.60;28.02;;;;;;;;;;10002033;28;20096;-61
2023/02/14 03:47:22;;;;;;;33.75;26.13;;;;;;;;;;10001297;28;20099;-61
2023/02/14 03:52:15;;;;;;;33.78;25.83;;;;;;;;;;9999092;28;20049;-61
2023/02/14 03:57:18;;;;;;;35.03;27.20;;;;;;;;;;10002797;28;20120;-61
2023/02/14 04:02:19;;;;;;;35.50;26.33;;;;;;;;;;9997165;28;20073;-61
2023/02/14 04:07:15;;;;;;;41.92;28.50;;;;;;;;;;10003881;28;20053;-61
2023/02/14 04:12:09;;;;;;;37.85;30.08;;;;;;;;;;9999555;28;20046;-61
2023/02/14 04:22:14;;;;;;;39.33;27.42;;;;;;;;;;10017381;28;20052;-61
2023/02/14 04:27:11;;;;;;;37.88;29.58;;;;;;;;;;10018172;28;20144;-61
2023/02/14 04:32:12;;;;;;;41.53;31.33;;;;;;;;;;10023844;28;20057;-61
2023/02/14 04:37:13;;;;;;;48.42;32.78;;;;;;;;;;10029121;28;20065;-60
2023/02/14 04:42:07;;;;;;;35.17;27.30;;;;;;;;;;10014828;28;20062;-61
2023/02/14 04:47:01;;;;;;;38.15;28.35;;;;;;;;;;10023574;28;20540;-61
2023/02/14 04:51:54;;;;;;;41.13;30.52;;;;;;;;;;10031530;28;20470;-61
2023/02/14 04:56:48;;;;;;;37.15;28.02;;;;;;;;;;10031189;28;20061;-61
2023/02/14 05:01:41;;;;;;;37.58;28.02;;;;;;;;;;10030849;28;20422;-61
2023/02/14 05:06:35;;;;;;;34.00;26.85;;;;;;;;;;10030783;28;20053;-61
2023/02/14 05:11:29;;;;;;;37.28;28.60;;;;;;;;;;10030240;28;20062;-65
2023/02/14 05:16:23;;;;;;;33.55;27.75;;;;;;;;;;10025936;28;20050;-61
2023/02/14 05:21:16;;;;;;;38.05;28.30;;;;;;;;;;10029863;28;20064;-61
2023/02/14 05:26:09;;;;;;;35.47;29.15;;;;;;;;;;10020305;28;20084;-61
2023/02/14 05:31:04;;;;;;;35.58;28.10;;;;;;;;;;10014094;28;20442;-61
2023/02/14 05:35:59;;;;;;;53.58;26.85;;;;;;;;;;10028896;28;20061;-61
2023/02/14 05:40:52;;;;;;;38.33;29.33;;;;;;;;;;10028038;28;20072;-61
2023/02/14 05:45:45;;;;;;;34.13;26.83;;;;;;;;;;10029164;28;20120;-61
2023/02/14 05:50:39;;;;;;;42.80;26.90;;;;;;;;;;10028674;28;20146;-60
2023/02/14 05:55:32;;;;;;;37.15;28.92;;;;;;;;;;10028389;28;20048;-60
2023/02/14 06:00:26;;;;;;;37.58;27.45;;;;;;;;;;10022070;28;20046;-61
2023/02/14 06:05:20;;;;;;;38.03;30.13;;;;;;;;;;10013791;28;20165;-61
2023/02/14 06:10:14;;;;;;;38.80;28.92;;;;;;;;;;10015604;28;20052;-61
2023/02/14 06:15:09;;;;;;;33.20;24.55;;;;;;;;;;10016760;28;20514;-61
2023/02/14 06:20:04;;;;;;;38.35;28.85;;;;;;;;;;10012232;28;20418;-61
2023/02/14 06:24:57;;;;;;;34.35;25.77;;;;;;;;;;10007122;28;20054;-62
2023/02/14 06:29:51;;;;;;;36.45;24.63;;;;;;;;;;10006564;28;20081;-61
2023/02/14 06:34:44;;;;;;;29.73;22.98;;;;;;;;;;10016231;28;20457;-58
2023/02/14 06:39:37;;;;;;;34.47;26.55;;;;;;;;;;10022679;28;20057;-60
2023/02/14 06:44:31;;;;;;;41.90;30.45;;;;;;;;;;10004228;28;20076;-60
2023/02/14 06:49:25;;;;;;;43.75;29.67;;;;;;;;;;10007505;28;20080;-60
2023/02/14 06:54:20;;;;;;;44.70;32.65;;;;;;;;;;9994338;28;20070;-59
2023/02/14 06:59:13;;;;;;;39.35;28.83;;;;;;;;;;9995478;28;20049;-60
2023/02/14 07:04:06;;;;;;;36.45;26.70;;;;;;;;;;10005961;28;20145;-60
2023/02/14 07:09:00;;;;;;;36.83;26.65;;;;;;;;;;10010956;28;20133;-60
2023/02/14 07:13:53;;;;;;;32.92;26.42;;;;;;;;;;10020348;28;20058;-60
2023/02/14 07:18:47;;;;;;;33.40;24.77;;;;;;;;;;10012242;28;20152;-60
2023/02/14 07:23:40;;;;;;;40.65;26.50;;;;;;;;;;10024780;28;20046;-60
2023/02/14 07:28:33;;;;;;;37.42;24.95;;;;;;;;;;10023916;28;20099;-60
2023/02/14 07:33:27;;;;;;;41.88;26.60;;;;;;;;;;10009622;28;20047;-60
2023/02/14 07:38:21;;;;;;;32.15;24.38;;;;;;;;;;10017312;28;20050;-60
2023/02/14 07:43:14;;;;;;;35.22;24.10;;;;;;;;;;10023665;28;20137;-60
2023/02/14 07:48:07;;;;;;;36.28;22.67;;;;;;;;;;10019810;28;20120;-60
2023/02/14 07:53:01;;;;;;;31.80;22.00;;;;;;;;;;10025160;28;20049;-60
2023/02/14 07:57:54;;;;;;;41.20;20.63;;;;;;;;;;10025260;28;20054;-60
2023/02/14 08:02:49;;;;;;;34.45;23.20;;;;;;;;;;10020553;28;20061;-60
2023/02/14 08:07:43;;;;;;;52.25;22.67;;;;;;;;;;10030365;28;20050;-60
2023/02/14 08:17:48;;;;;;;34.33;22.52;;;;;;;;;;10018617;28;20058;-61
2023/02/14 08:22:41;;;;;;;50.25;31.08;;;;;;;;;;10031342;28;20053;-60
2023/02/14 08:27:35;;;;;;;40.58;24.80;;;;;;;;;;10018912;28;20059;-59
2023/02/14 08:32:28;;;;;;;31.92;23.42;;;;;;;;;;10031353;28;20046;-59
2023/02/14 08:37:22;;;;;;;34.40;24.38;;;;;;;;;;10031671;28;20503;-59
2023/02/14 08:42:15;;;;;;;28.45;23.70;;;;;;;;;;10018900;28;20081;-60
2023/02/14 08:47:08;;;;;;;36.05;26.40;;;;;;;;;;10031638;28;20058;-60
2023/02/14 08:52:01;;;;;;;36.03;26.30;;;;;;;;;;10030462;28;20073;-60
2023/02/14 08:56:55;;;;;;;35.47;26.17;;;;;;;;;;10030483;28;20129;-59
2023/02/14 09:01:50;;;;;;;40.10;27.25;;;;;;;;;;10031035;28;20054;-60
2023/02/14 09:06:43;;;;;;;41.35;29.42;;;;;;;;;;10029159;28;20057;-60
2023/02/14 09:11:36;;;;;;;42.70;30.00;;;;;;;;;;10027335;28;20096;-60
2023/02/14 09:16:31;;;;;;;45.00;30.40;;;;;;;;;;10030086;28;20042;-60
2023/02/14 09:21:25;;;;;;;49.03;31.77;;;;;;;;;;10029816;28;20132;-60
2023/02/14 09:26:19;;;;;;;43.03;32.33;;;;;;;;;;10018272;28;20057;-59
2023/02/14 09:31:15;;;;;;;44.33;31.05;;;;;;;;;;10019129;28;20057;-60
2023/02/14 09:41:40;;;;;;;50.17;32.25;;;;;;;;;;10028712;28;20569;-59
2023/02/14 09:46:40;;;;;;;55.45;31.20;;;;;;;;;;10002238;28;20057;-60
2023/02/14 09:51:33;;;;;;;43.85;30.63;;;;;;;;;;10022178;28;20054;-60
2023/02/14 09:56:36;;;;;;;39.60;26.17;;;;;;;;;;10027664;28;20396;-60
2023/02/14 10:01:47;;;;;;;44.92;29.08;;;;;;;;;;10011707;28;20084;-60
2023/02/14 10:06:57;;;;;;;34.83;25.77;;;;;;;;;;10019240;28;20045;-59
2023/02/14 10:11:50;;;;;;;38.00;26.55;;;;;;;;;;10008877;28;20054;-60
2023/02/14 10:16:52;;;;;;;38.30;26.10;;;;;;;;;;10016595;28;20057;-60
2023/02/14 10:21:55;;;;;;;40.83;27.25;;;;;;;;;;10017197;28;20096;-59
2023/02/14 10:26:50;;;;;;;43.72;28.00;;;;;;;;;;10026363;28;20070;-59
2023/02/14 10:31:42;;;;;;;37.45;27.50;;;;;;;;;;10002265;28;20524;-59
2023/02/14 10:37:02;;;;;;;37.08;27.00;;;;;;;;;;10026548;28;20060;-60
2023/02/14 10:42:32;;;;;;;47.72;27.15;;;;;;;;;;10025528;28;20495;-59
2023/02/14 10:47:45;;;;;;;35.92;25.10;;;;;;;;;;10009197;28;20060;-59
2023/02/14 10:52:39;;;;;;;41.65;28.38;;;;;;;;;;10014388;28;20060;-59
2023/02/14 10:57:35;;;;;;;38.33;25.85;;;;;;;;;;10024817;28;20054;-60
2023/02/14 11:02:50;;;;;;;55.35;29.40;;;;;;;;;;10021982;28;20477;-60
2023/02/14 11:07:44;;;;;;;41.67;27.42;;;;;;;;;;10022639;28;20046;-60
2023/02/14 11:12:39;;;;;;;40.60;27.77;;;;;;;;;;10002736;28;20207;-59
2023/02/14 11:17:34;;;;;;;39.85;28.90;;;;;;;;;;10001275;28;20137;-59
2023/02/14 11:22:29;;;;;;;50.17;30.35;;;;;;;;;;9998736;28;20053;-59
2023/02/14 11:27:21;;;;;;;51.33;34.38;;;;;;;;;;9992155;28;20078;-60
2023/02/14 11:32:23;;;;;;;66.32;42.45;;;;;;;;;;10017092;28;20499;-60
2023/02/14 11:37:43;;;;;;;65.28;42.90;;;;;;;;;;10026334;28;20057;-59
2023/02/14 11:42:42;;;;;;;67.13;44.50;;;;;;;;;;10028428;28;20061;-60
2023/02/14 11:47:41;;;;;;;68.95;47.63;;;;;;;;;;10026725;28;20058;-59
2023/02/14 11:52:50;;;;;;;64.65;40.20;;;;;;;;;;10005340;28;20552;-59
2023/02/14 11:57:42;;;;;;;64.07;40.58;;;;;;;;;;10006133;28;20469;-59
2023/02/14 12:02:41;;;;;;;60.45;39.60;;;;;;;;;;10016673;28;20041;-59
2023/02/14 12:07:36;;;;;;;57.60;37.03;;;;;;;;;;10023883;28;20056;-60
2023/02/14 12:12:28;;;;;;;68.75;41.55;;;;;;;;;;10032816;28;20145;-64
2023/02/14 12:17:52;;;;;;;60.30;36.95;;;;;;;;;;10021625;28;20667;-59
2023/02/14 12:22:50;;;;;;;63.88;39.95;;;;;;;;;;10017128;28;20100;-59
2023/02/14 12:27:51;;;;;;;57.33;38.05;;;;;;;;;;10032622;28;20050;-59
2023/02/14 12:32:50;;;;;;;59.17;36.50;;;;;;;;;;10018428;28;20137;-59
2023/02/14 12:38:06;;;;;;;65.80;36.67;;;;;;;;;;10015965;28;20045;-59
2023/02/14 12:43:17;;;;;;;57.05;35.83;;;;;;;;;;10015284;28;20148;-59
2023/02/14 12:48:48;;;;;;;62.33;36.35;;;;;;;;;;10013324;28;20143;-59
2023/02/14 12:54:00;;;;;;;61.30;36.88;;;;;;;;;;10007807;28;20061;-59
2023/02/14 12:59:30;;;;;;;67.15;39.58;;;;;;;;;;10022176;28;20057;-59
2023/02/14 13:04:44;;;;;;;62.63;39.75;;;;;;;;;;10022133;28;20125;-59
2023/02/14 13:09:42;;;;;;;62.25;38.10;;;;;;;;;;10027650;28;20080;-59
2023/02/14 13:14:55;;;;;;;65.57;38.95;;;;;;;;;;10029874;28;20721;-59
2023/02/14 13:19:55;;;;;;;61.45;37.20;;;;;;;;;;10025021;28;20104;-59
2023/02/14 13:24:51;;;;;;;70.78;40.35;;;;;;;;;;10029453;28;20096;-59
2023/02/14 13:29:50;;;;;;;58.78;34.03;;;;;;;;;;10027764;28;20133;-58
2023/02/14 13:34:45;;;;;;;61.80;36.33;;;;;;;;;;10024124;28;20077;-59
2023/02/14 13:39:43;;;;;;;61.75;34.83;;;;;;;;;;10018297;28;20114;-59
2023/02/14 13:44:46;;;;;;;64.97;36.40;;;;;;;;;;10013463;28;20624;-59
2023/02/14 13:49:47;;;;;;;59.15;34.30;;;;;;;;;;10009579;28;20057;-58
2023/02/14 13:54:47;;;;;;;67.30;37.45;;;;;;;;;;10024334;28;20065;-58
2023/02/14 13:59:40;;;;;;;63.83;36.28;;;;;;;;;;10015523;28;20077;-59
2023/02/14 14:04:36;;;;;;;60.50;36.00;;;;;;;;;;10016825;28;20054;-59
2023/02/14 14:09:41;;;;;;;64.32;35.00;;;;;;;;;;10023455;28;20046;-59
2023/02/14 14:14:35;;;;;;;59.25;35.20;;;;;;;;;;10025018;28;20104;-59
2023/02/14 14:19:28;;;;;;;65.55;38.03;;;;;;;;;;10026433;28;20045;-59
2023/02/14 14:24:29;;;;;;;68.97;36.92;;;;;;;;;;10007674;28;20053;-59
2023/02/14 14:29:32;;;;;;;61.17;33.65;;;;;;;;;;10013753;28;20042;-59
2023/02/14 14:34:27;;;;;;;64.70;34.85;;;;;;;;;;10009123;28;20050;-59
2023/02/14 14:39:26;;;;;;;69.28;40.63;;;;;;;;;;10012076;28;20053;-58
2023/02/14 14:44:20;;;;;;;63.40;36.50;;;;;;;;;;10007242;28;20503;-58
2023/02/14 14:49:13;;;;;;;63.08;34.90;;;;;;;;;;10004843;28;20089;-58
2023/02/14 14:54:19;;;;;;;62.25;33.40;;;;;;;;;;10011133;28;20105;-59
2023/02/14 14:59:34;;;;;;;55.30;34.13;;;;;;;;;;10005888;28;20450;-58
2023/02/14 15:04:30;;;;;;;60.40;36.78;;;;;;;;;;10011640;28;20049;-59
2023/02/14 15:09:30;;;;;;;67.60;35.67;;;;;;;;;;10007752;28;20407;-59
2023/02/14 15:14:24;;;;;;;64.25;34.72;;;;;;;;;;10008336;28;20038;-57
2023/02/14 15:19:32;;;;;;;62.58;34.33;;;;;;;;;;10007733;28;20053;-58
2023/02/14 15:24:25;;;;;;;57.78;35.35;;;;;;;;;;10004127;28;20027;-58
2023/02/14 15:29:41;;;;;;;63.80;36.95;;;;;;;;;;10008670;28;20049;-58
2023/02/14 15:34:35;;;;;;;61.75;37.33;;;;;;;;;;10011076;28;20515;-61
2023/02/14 15:39:43;;;;;;;62.75;35.58;;;;;;;;;;10005548;28;20145;-60
2023/02/14 15:44:36;;;;;;;57.50;34.20;;;;;;;;;;10023710;28;20053;-60
2023/02/14 15:49:35;;;;;;;63.10;35.97;;;;;;;;;;10010435;28;20050;-59
2023/02/14 15:54:36;;;;;;;66.15;36.75;;;;;;;;;;10005387;28;20054;-59
2023/02/14 15:59:29;;;;;;;57.03;33.55;;;;;;;;;;10004256;28;20514;-60
2023/02/14 16:04:25;;;;;;;57.15;32.42;;;;;;;;;;10013067;28;20057;-60
2023/02/14 16:09:29;;;;;;;63.78;34.67;;;;;;;;;;10002807;28;20046;-57
2023/02/14 16:14:55;;;;;;;58.25;33.80;;;;;;;;;;10004655;28;20121;-60
2023/02/14 16:19:49;;;;;;;57.40;32.83;;;;;;;;;;10013334;28;20057;-58
2023/02/14 16:24:42;;;;;;;63.80;33.90;;;;;;;;;;10012346;28;20073;-60
2023/02/14 16:29:36;;;;;;;58.78;32.83;;;;;;;;;;10024230;28;20065;-60
2023/02/14 16:34:29;;;;;;;64.13;34.65;;;;;;;;;;10017949;28;20056;-61
2023/02/14 16:39:23;;;;;;;62.25;36.30;;;;;;;;;;10014890;28;20072;-61
2023/02/14 16:44:24;;;;;;;62.08;35.67;;;;;;;;;;10010457;28;20502;-58
2023/02/14 16:49:19;;;;;;;61.28;34.60;;;;;;;;;;10019435;28;20064;-59
2023/02/14 16:54:20;;;;;;;61.97;32.88;;;;;;;;;;10010183;28;20042;-59
2023/02/14 16:59:14;;;;;;;63.33;35.03;;;;;;;;;;10005705;28;20132;-58
2023/02/14 17:04:08;;;;;;;68.45;33.65;;;;;;;;;;10015397;28;20056;-59
2023/02/14 17:09:06;;;;;;;65.43;35.25;;;;;;;;;;10015635;28;20065;-61
2023/02/14 17:13:59;;;;;;;63.20;34.40;;;;;;;;;;10009101;28;20494;-58
2023/02/14 17:18:52;;;;;;;59.20;33.58;;;;;;;;;;10019976;28;20495;-61
2023/02/14 17:23:44;;;;;;;62.13;36.30;;;;;;;;;;10016643;28;20072;-58
2023/02/14 17:28:38;;;;;;;57.00;35.88;;;;;;;;;;10003039;28;20113;-59
2023/02/14 17:33:31;;;;;;;65.13;38.33;;;;;;;;;;10006416;28;20053;-61
2023/02/14 17:38:25;;;;;;;71.97;43.30;;;;;;;;;;10015095;28;20093;-58
2023/02/14 17:43:19;;;;;;;75.57;41.30;;;;;;;;;;10013118;28;20120;-58
2023/02/14 17:48:12;;;;;;;79.18;46.60;;;;;;;;;;10008057;28;20116;-59
2023/02/14 17:53:06;;;;;;;86.47;48.35;;;;;;;;;;10015365;28;20055;-61
2023/02/14 17:57:59;;;;;;;85.50;44.30;;;;;;;;;;10017327;28;20061;-61
2023/02/14 18:02:52;;;;;;;77.63;46.63;;;;;;;;;;10007811;28;20078;-59
2023/02/14 18:07:47;;;;;;;81.00;45.30;;;;;;;;;;10010853;28;20046;-59
2023/02/14 18:12:41;;;;;;;94.55;50.85;;;;;;;;;;10006752;28;20058;-61
2023/02/14 18:17:34;;;;;;;96.05;57.58;;;;;;;;;;10023684;28;20045;-62
2023/02/14 18:22:28;;;;;;;85.03;50.45;;;;;;;;;;10020551;28;20058;-62
2023/02/14 18:27:21;;;;;;;82.75;50.05;;;;;;;;;;10020382;28;20556;-62
2023/02/14 18:32:15;;;;;;;103.32;50.33;;;;;;;;;;10021800;28;20526;-62
2023/02/14 18:37:10;;;;;;;99.97;60.80;;;;;;;;;;10024284;28;20050;-62
2023/02/14 18:42:04;;;;;;;88.63;53.50;;;;;;;;;;10010980;28;20097;-61
2023/02/14 18:46:59;;;;;;;91.10;54.28;;;;;;;;;;10018263;28;20073;-61
2023/02/14 18:51:53;;;;;;;90.93;53.97;;;;;;;;;;10026411;28;20050;-61
2023/02/14 18:56:47;;;;;;;82.43;52.13;;;;;;;;;;10011785;28;20070;-61
2023/02/14 19:01:44;;;;;;;87.00;50.65;;;;;;;;;;10012302;28;20132;-61
2023/02/14 19:06:39;;;;;;;74.68;48.25;;;;;;;;;;10026130;28;20069;-61
2023/02/14 19:11:32;;;;;;;74.13;48.20;;;;;;;;;;10013762;28;20058;-61
2023/02/14 19:16:31;;;;;;;82.38;47.45;;;;;;;;;;10018689;28;20054;-63
2023/02/14 19:21:29;;;;;;;68.10;44.00;;;;;;;;;;10018626;28;20116;-61
2023/02/14 19:26:28;;;;;;;69.65;42.75;;;;;;;;;;10022921;28;20076;-61
2023/02/14 19:31:23;;;;;;;80.60;47.10;;;;;;;;;;10017756;28;20068;-61
2023/02/14 19:36:20;;;;;;;107.00;61.03;;;;;;;;;;10015211;28;20046;-62
2023/02/14 19:41:19;;;;;;;82.65;46.63;;;;;;;;;;10023727;28;20104;-62
2023/02/14 19:46:14;;;;;;;114.68;64.07;;;;;;;;;;10014506;28;20042;-61
2023/02/14 19:51:12;;;;;;;94.97;58.92;;;;;;;;;;10012893;28;20066;-61
2023/02/14 19:56:06;;;;;;;87.75;53.72;;;;;;;;;;10005783;28;20491;-61
2023/02/14 20:01:01;;;;;;;84.78;55.78;;;;;;;;;;10028070;28;20054;-61
2023/02/14 20:05:54;;;;;;;88.85;54.50;;;;;;;;;;10033506;28;20569;-61
2023/02/14 20:10:48;;;;;;;86.45;51.65;;;;;;;;;;10033126;28;20109;-61
2023/02/14 20:15:44;;;;;;;100.88;51.08;;;;;;;;;;10021696;28;20054;-61
2023/02/14 20:21:02;;;;;;;78.18;49.97;;;;;;;;;;10028596;28;20042;-61
2023/02/14 20:25:55;;;;;;;73.70;46.95;;;;;;;;;;10023307;28;20081;-61
2023/02/14 20:30:49;;;;;;;72.53;47.20;;;;;;;;;;10015964;28;20076;-62
2023/02/14 20:35:42;;;;;;;77.45;47.50;;;;;;;;;;10032574;28;20074;-62
2023/02/14 20:40:41;;;;;;;79.75;51.22;;;;;;;;;;10021052;28;20487;-62
2023/02/14 20:45:34;;;;;;;70.25;45.53;;;;;;;;;;10021662;28;20389;-62
2023/02/14 20:50:29;;;;;;;72.78;46.67;;;;;;;;;;10030993;28;20050;-62
2023/02/14 20:55:22;;;;;;;78.07;45.50;;;;;;;;;;10021446;28;20128;-61
2023/02/14 21:00:16;;;;;;;69.90;44.05;;;;;;;;;;10020872;28;20045;-61
2023/02/14 21:05:10;;;;;;;69.00;44.95;;;;;;;;;;10022167;28;20096;-61
2023/02/14 21:10:08;;;;;;;72.57;46.50;;;;;;;;;;10030530;28;20046;-61
2023/02/14 21:15:00;;;;;;;72.90;46.88;;;;;;;;;;10031235;28;20398;-61
2023/02/14 21:19:54;;;;;;;74.40;46.90;;;;;;;;;;10030191;28;20108;-60
2023/02/14 21:24:48;;;;;;;68.75;43.65;;;;;;;;;;10030212;28;20418;-60
2023/02/14 21:29:41;;;;;;;66.75;42.50;;;;;;;;;;10030301;28;20060;-61
2023/02/14 21:34:35;;;;;;;59.85;37.20;;;;;;;;;;10030045;28;20064;-61
2023/02/14 21:39:29;;;;;;;58.42;37.63;;;;;;;;;;10027296;28;20046;-62
2023/02/14 21:54:47;;;;;;;56.28;34.97;;;;;;;;;;10029229;28;20403;-62
2023/02/14 21:59:41;;;;;;;52.97;36.40;;;;;;;;;;10028768;28;20050;-62
2023/02/14 22:04:34;;;;;;;52.05;33.58;;;;;;;;;;10028976;28;20469;-61
2023/02/14 22:09:27;;;;;;;56.33;35.78;;;;;;;;;;10028635;28;20499;-61
2023/02/14 22:14:20;;;;;;;51.20;32.97;;;;;;;;;;10026678;28;20058;-63
2023/02/14 22:19:15;;;;;;;51.08;32.88;;;;;;;;;;10026162;28;20145;-62
2023/02/14 22:24:08;;;;;;;54.78;37.78;;;;;;;;;;10026050;28;20133;-62
2023/02/14 22:29:01;;;;;;;50.05;34.40;;;;;;;;;;10025278;28;20048;-62
2023/02/14 22:33:54;;;;;;;46.70;34.08;;;;;;;;;;10017738;28;20050;-68
2023/02/14 22:38:48;;;;;;;47.25;33.38;;;;;;;;;;10014606;28;20406;-62
2023/02/14 22:43:42;;;;;;;46.00;31.27;;;;;;;;;;10018223;28;20048;-64
2023/02/14 22:48:35;;;;;;;40.72;27.45;;;;;;;;;;10019424;28;20089;-64
2023/02/14 22:53:29;;;;;;;41.13;27.73;;;;;;;;;;10018465;28;20077;-64
2023/02/14 22:58:23;;;;;;;37.90;28.45;;;;;;;;;;10018087;28;20085;-64
2023/02/14 23:03:19;;;;;;;46.70;27.85;;;;;;;;;;10019435;28;20042;-64
2023/02/14 23:08:13;;;;;;;43.08;27.17;;;;;;;;;;10017440;28;20093;-64
2023/02/14 23:23:33;;;;;;;37.78;26.33;;;;;;;;;;10019024;28;20549;-64
2023/02/14 23:28:27;;;;;;;47.00;30.02;;;;;;;;;;10018247;28;20038;-64
2023/02/14 23:33:22;;;;;;;41.45;28.88;;;;;;;;;;10018220;28;20050;-64
2023/02/14 23:38:15;;;;;;;46.35;27.25;;;;;;;;;;10018137;28;20100;-64
2023/02/14 23:43:09;;;;;;;39.33;26.52;;;;;;;;;;10017182;28;20084;-64
2023/02/14 23:48:03;;;;;;;33.65;24.65;;;;;;;;;;10018120;28;20072;-64
2023/02/14 23:52:58;;;;;;;36.85;23.83;;;;;;;;;;10018463;28;20471;-64
2023/02/14 23:57:51;;;;;;;28.83;19.95;;;;;;;;;;10018486;28;20052;-63
